sensor_id;sensor_type;location;lat;lon;timestamp;temperature;humidity
33269;DHT22;19640;50.944;5.260;2023-09-18T00:00:03;19.60;99.90
33269;DHT22;19640;50.944;5.260;2023-09-18T00:02:38;19.80;99.90
33269;DHT22;19640;50.944;5.260;2023-09-18T00:05:03;19.80;99.90
33269;DHT22;19640;50.944;5.260;2023-09-18T00:07:29;19.70;99.90
33269;DHT22;19640;50.944;5.260;2023-09-18T00:09:55;19.50;99.90
33269;DHT22;19640;50.944;5.260;2023-09-18T00:12:21;19.40;99.90
33269;DHT22;19640;50.944;5.260;2023-09-18T00:14:50;19.40;99.90
33269;DHT22;19640;50.944;5.260;2023-09-18T00:17:16;19.50;99.90
33269;DHT22;19640;50.944;5.260;2023-09-18T00:19:43;19.50;99.90
33269;DHT22;19640;50.944;5.260;2023-09-18T00:22:08;19.40;99.90
33269;DHT22;19640;50.944;5.260;2023-09-18T00:24:34;19.30;99.90
33269;DHT22;19640;50.944;5.260;2023-09-18T00:27:00;19.30;99.90
33269;DHT22;19640;50.944;5.260;2023-09-18T00:29:25;19.50;99.90
33269;DHT22;19640;50.944;5.260;2023-09-18T00:31:52;19.60;99.90
33269;DHT22;19640;50.944;5.260;2023-09-18T00:34:18;19.60;99.90
33269;DHT22;19640;50.944;5.260;2023-09-18T00:36:44;19.40;99.90
33269;DHT22;19640;50.944;5.260;2023-09-18T00:39:09;19.30;99.90
33269;DHT22;19640;50.944;5.260;2023-09-18T00:41:36;19.30;99.90
33269;DHT22;19640;50.944;5.260;2023-09-18T00:44:02;19.10;99.90
33269;DHT22;19640;50.944;5.260;2023-09-18T00:46:29;18.90;99.90
33269;DHT22;19640;50.944;5.260;2023-09-18T00:48:55;18.80;99.90
33269;DHT22;19640;50.944;5.260;2023-09-18T00:51:21;18.90;99.90
33269;DHT22;19640;50.944;5.260;2023-09-18T00:53:48;18.90;99.90
33269;DHT22;19640;50.944;5.260;2023-09-18T00:56:14;18.90;99.90
33269;DHT22;19640;50.944;5.260;2023-09-18T00:58:40;18.90;99.90
33269;DHT22;19640;50.944;5.260;2023-09-18T01:01:06;18.90;99.90
33269;DHT22;19640;50.944;5.260;2023-09-18T01:03:34;19.00;99.90
33269;DHT22;19640;50.944;5.260;2023-09-18T01:06:00;19.10;99.90
33269;DHT22;19640;50.944;5.260;2023-09-18T01:08:25;19.00;99.90
33269;DHT22;19640;50.944;5.260;2023-09-18T01:11:16;18.90;99.90
33269;DHT22;19640;50.944;5.260;2023-09-18T01:14:03;19.00;99.90
33269;DHT22;19640;50.944;5.260;2023-09-18T01:16:50;19.10;99.90
33269;DHT22;19640;50.944;5.260;2023-09-18T01:22:04;19.00;99.90
33269;DHT22;19640;50.944;5.260;2023-09-18T01:24:32;19.00;99.90
33269;DHT22;19640;50.944;5.260;2023-09-18T01:26:58;18.90;99.90
33269;DHT22;19640;50.944;5.260;2023-09-18T01:29:23;19.00;99.90
33269;DHT22;19640;50.944;5.260;2023-09-18T01:31:49;19.00;99.90
33269;DHT22;19640;50.944;5.260;2023-09-18T01:34:22;19.10;99.90
33269;DHT22;19640;50.944;5.260;2023-09-18T01:36:51;19.30;99.90
33269;DHT22;19640;50.944;5.260;2023-09-18T01:39:18;19.40;99.90
33269;DHT22;19640;50.944;5.260;2023-09-18T01:41:44;19.60;99.90
33269;DHT22;19640;50.944;5.260;2023-09-18T01:44:11;19.80;99.90
33269;DHT22;19640;50.944;5.260;2023-09-18T01:46:37;19.70;99.90
33269;DHT22;19640;50.944;5.260;2023-09-18T01:49:03;19.70;99.90
33269;DHT22;19640;50.944;5.260;2023-09-18T01:51:29;19.70;99.90
33269;DHT22;19640;50.944;5.260;2023-09-18T01:53:56;19.70;99.90
33269;DHT22;19640;50.944;5.260;2023-09-18T01:56:23;19.90;99.90
33269;DHT22;19640;50.944;5.260;2023-09-18T01:58:49;20.10;99.90
33269;DHT22;19640;50.944;5.260;2023-09-18T02:01:15;20.20;99.90
33269;DHT22;19640;50.944;5.260;2023-09-18T02:03:40;20.30;99.90
33269;DHT22;19640;50.944;5.260;2023-09-18T02:06:10;20.50;99.90
33269;DHT22;19640;50.944;5.260;2023-09-18T02:08:36;20.60;99.90
33269;DHT22;19640;50.944;5.260;2023-09-18T02:11:01;20.70;99.90
33269;DHT22;19640;50.944;5.260;2023-09-18T02:13:28;20.70;99.90
33269;DHT22;19640;50.944;5.260;2023-09-18T02:15:54;20.70;99.90
33269;DHT22;19640;50.944;5.260;2023-09-18T02:18:21;20.70;99.90
33269;DHT22;19640;50.944;5.260;2023-09-18T02:20:47;20.70;99.90
33269;DHT22;19640;50.944;5.260;2023-09-18T02:23:17;20.60;99.90
33269;DHT22;19640;50.944;5.260;2023-09-18T02:25:44;20.80;99.90
33269;DHT22;19640;50.944;5.260;2023-09-18T02:28:10;20.70;99.90
33269;DHT22;19640;50.944;5.260;2023-09-18T02:30:36;20.60;99.90
33269;DHT22;19640;50.944;5.260;2023-09-18T02:33:02;20.60;99.90
33269;DHT22;19640;50.944;5.260;2023-09-18T02:35:29;20.60;99.90
33269;DHT22;19640;50.944;5.260;2023-09-18T02:37:55;20.50;99.90
33269;DHT22;19640;50.944;5.260;2023-09-18T02:40:21;20.50;99.90
33269;DHT22;19640;50.944;5.260;2023-09-18T02:42:47;20.40;99.90
33269;DHT22;19640;50.944;5.260;2023-09-18T02:45:12;20.30;99.90
33269;DHT22;19640;50.944;5.260;2023-09-18T02:47:38;20.20;99.90
33269;DHT22;19640;50.944;5.260;2023-09-18T02:50:07;20.10;99.90
33269;DHT22;19640;50.944;5.260;2023-09-18T02:52:33;20.00;99.90
33269;DHT22;19640;50.944;5.260;2023-09-18T02:54:58;20.00;99.90
33269;DHT22;19640;50.944;5.260;2023-09-18T02:57:24;20.10;99.90
33269;DHT22;19640;50.944;5.260;2023-09-18T02:59:50;20.00;99.90
33269;DHT22;19640;50.944;5.260;2023-09-18T03:02:15;19.90;99.90
33269;DHT22;19640;50.944;5.260;2023-09-18T03:04:41;20.00;99.90
33269;DHT22;19640;50.944;5.260;2023-09-18T03:07:06;19.90;99.90
33269;DHT22;19640;50.944;5.260;2023-09-18T03:09:32;19.80;99.90
33269;DHT22;19640;50.944;5.260;2023-09-18T03:11:58;19.70;99.90
33269;DHT22;19640;50.944;5.260;2023-09-18T03:14:23;19.60;99.90
33269;DHT22;19640;50.944;5.260;2023-09-18T03:16:49;19.70;99.90
33269;DHT22;19640;50.944;5.260;2023-09-18T03:19:15;19.80;99.90
33269;DHT22;19640;50.944;5.260;2023-09-18T03:21:41;19.80;99.90
33269;DHT22;19640;50.944;5.260;2023-09-18T03:24:07;19.70;99.90
33269;DHT22;19640;50.944;5.260;2023-09-18T03:26:33;19.70;99.90
33269;DHT22;19640;50.944;5.260;2023-09-18T03:28:59;19.60;99.90
33269;DHT22;19640;50.944;5.260;2023-09-18T03:31:24;19.50;99.90
33269;DHT22;19640;50.944;5.260;2023-09-18T03:33:51;19.50;99.90
33269;DHT22;19640;50.944;5.260;2023-09-18T03:36:16;19.50;99.90
33269;DHT22;19640;50.944;5.260;2023-09-18T03:38:42;19.40;99.90
33269;DHT22;19640;50.944;5.260;2023-09-18T03:41:07;19.50;99.90
33269;DHT22;19640;50.944;5.260;2023-09-18T03:43:33;19.60;99.90
33269;DHT22;19640;50.944;5.260;2023-09-18T03:46:06;19.80;99.90
33269;DHT22;19640;50.944;5.260;2023-09-18T03:48:32;19.90;99.90
33269;DHT22;19640;50.944;5.260;2023-09-18T03:51:04;19.80;99.90
33269;DHT22;19640;50.944;5.260;2023-09-18T03:53:30;19.80;99.90
33269;DHT22;19640;50.944;5.260;2023-09-18T03:55:56;19.80;99.90
33269;DHT22;19640;50.944;5.260;2023-09-18T03:58:22;19.80;99.90
33269;DHT22;19640;50.944;5.260;2023-09-18T04:00:47;19.80;99.90
33269;DHT22;19640;50.944;5.260;2023-09-18T04:03:14;19.80;99.90
33269;DHT22;19640;50.944;5.260;2023-09-18T04:05:40;19.80;99.90
33269;DHT22;19640;50.944;5.260;2023-09-18T04:08:06;19.80;99.90
33269;DHT22;19640;50.944;5.260;2023-09-18T04:10:31;19.80;99.90
33269;DHT22;19640;50.944;5.260;2023-09-18T04:12:58;19.90;99.90
33269;DHT22;19640;50.944;5.260;2023-09-18T04:15:24;19.90;99.90
33269;DHT22;19640;50.944;5.260;2023-09-18T04:17:51;20.00;99.90
33269;DHT22;19640;50.944;5.260;2023-09-18T04:20:16;20.10;99.90
33269;DHT22;19640;50.944;5.260;2023-09-18T04:22:43;20.00;99.90
33269;DHT22;19640;50.944;5.260;2023-09-18T04:25:10;20.00;99.90
33269;DHT22;19640;50.944;5.260;2023-09-18T04:27:36;20.00;99.90
33269;DHT22;19640;50.944;5.260;2023-09-18T04:30:01;20.00;99.90
33269;DHT22;19640;50.944;5.260;2023-09-18T04:32:27;19.80;99.90
33269;DHT22;19640;50.944;5.260;2023-09-18T04:34:55;19.80;99.90
33269;DHT22;19640;50.944;5.260;2023-09-18T04:37:20;19.90;99.90
33269;DHT22;19640;50.944;5.260;2023-09-18T04:39:46;19.90;99.90
33269;DHT22;19640;50.944;5.260;2023-09-18T04:42:12;19.90;99.90
33269;DHT22;19640;50.944;5.260;2023-09-18T04:44:37;19.90;99.90
33269;DHT22;19640;50.944;5.260;2023-09-18T04:47:03;19.80;99.90
33269;DHT22;19640;50.944;5.260;2023-09-18T04:49:29;19.80;99.90
33269;DHT22;19640;50.944;5.260;2023-09-18T04:51:55;19.90;99.90
33269;DHT22;19640;50.944;5.260;2023-09-18T04:54:20;19.90;99.90
33269;DHT22;19640;50.944;5.260;2023-09-18T04:56:46;20.00;99.90
33269;DHT22;19640;50.944;5.260;2023-09-18T04:59:12;20.10;99.90
33269;DHT22;19640;50.944;5.260;2023-09-18T05:01:38;20.10;99.90
33269;DHT22;19640;50.944;5.260;2023-09-18T05:04:03;19.90;99.90
33269;DHT22;19640;50.944;5.260;2023-09-18T05:06:29;19.90;99.90
33269;DHT22;19640;50.944;5.260;2023-09-18T05:08:55;19.90;99.90
33269;DHT22;19640;50.944;5.260;2023-09-18T05:11:21;19.70;99.90
33269;DHT22;19640;50.944;5.260;2023-09-18T05:13:47;19.70;99.90
33269;DHT22;19640;50.944;5.260;2023-09-18T05:16:12;19.60;99.90
33269;DHT22;19640;50.944;5.260;2023-09-18T05:18:39;19.70;99.90
33269;DHT22;19640;50.944;5.260;2023-09-18T05:21:06;19.70;99.90
33269;DHT22;19640;50.944;5.260;2023-09-18T05:23:32;19.70;99.90
33269;DHT22;19640;50.944;5.260;2023-09-18T05:25:58;19.60;99.90
33269;DHT22;19640;50.944;5.260;2023-09-18T05:28:25;19.60;99.90
33269;DHT22;19640;50.944;5.260;2023-09-18T05:30:50;19.60;99.90
33269;DHT22;19640;50.944;5.260;2023-09-18T05:33:16;19.50;99.90
33269;DHT22;19640;50.944;5.260;2023-09-18T05:35:43;19.50;99.90
33269;DHT22;19640;50.944;5.260;2023-09-18T05:38:13;19.60;99.90
33269;DHT22;19640;50.944;5.260;2023-09-18T05:40:39;19.70;99.90
33269;DHT22;19640;50.944;5.260;2023-09-18T05:43:05;19.60;99.90
33269;DHT22;19640;50.944;5.260;2023-09-18T05:45:31;19.70;99.90
33269;DHT22;19640;50.944;5.260;2023-09-18T05:47:58;19.70;99.90
33269;DHT22;19640;50.944;5.260;2023-09-18T05:50:30;19.60;99.90
33269;DHT22;19640;50.944;5.260;2023-09-18T05:52:57;19.50;99.90
33269;DHT22;19640;50.944;5.260;2023-09-18T05:55:33;19.50;99.90
33269;DHT22;19640;50.944;5.260;2023-09-18T05:58:00;19.50;99.90
33269;DHT22;19640;50.944;5.260;2023-09-18T06:00:25;19.50;99.90
33269;DHT22;19640;50.944;5.260;2023-09-18T06:02:51;19.40;99.90
33269;DHT22;19640;50.944;5.260;2023-09-18T06:05:17;19.50;99.90
33269;DHT22;19640;50.944;5.260;2023-09-18T06:07:49;19.30;99.90
33269;DHT22;19640;50.944;5.260;2023-09-18T06:10:15;19.30;99.90
33269;DHT22;19640;50.944;5.260;2023-09-18T06:12:43;19.30;99.90
33269;DHT22;19640;50.944;5.260;2023-09-18T06:15:10;19.40;99.90
33269;DHT22;19640;50.944;5.260;2023-09-18T06:17:39;19.60;99.90
33269;DHT22;19640;50.944;5.260;2023-09-18T06:20:07;19.60;99.90
33269;DHT22;19640;50.944;5.260;2023-09-18T06:22:38;19.50;99.90
33269;DHT22;19640;50.944;5.260;2023-09-18T06:25:06;19.40;99.90
33269;DHT22;19640;50.944;5.260;2023-09-18T06:27:36;19.60;99.90
33269;DHT22;19640;50.944;5.260;2023-09-18T06:30:03;19.70;99.90
33269;DHT22;19640;50.944;5.260;2023-09-18T06:32:29;19.50;99.90
33269;DHT22;19640;50.944;5.260;2023-09-18T06:34:55;19.50;99.90
33269;DHT22;19640;50.944;5.260;2023-09-18T06:37:23;19.50;99.90
33269;DHT22;19640;50.944;5.260;2023-09-18T06:39:48;19.50;99.90
33269;DHT22;19640;50.944;5.260;2023-09-18T06:42:14;19.50;99.90
33269;DHT22;19640;50.944;5.260;2023-09-18T06:44:40;19.50;99.90
33269;DHT22;19640;50.944;5.260;2023-09-18T06:47:06;19.50;99.90
33269;DHT22;19640;50.944;5.260;2023-09-18T06:49:32;19.50;99.90
33269;DHT22;19640;50.944;5.260;2023-09-18T06:51:58;19.50;99.90
33269;DHT22;19640;50.944;5.260;2023-09-18T06:54:24;19.50;99.90
33269;DHT22;19640;50.944;5.260;2023-09-18T06:56:49;19.50;99.90
33269;DHT22;19640;50.944;5.260;2023-09-18T06:59:15;19.60;99.90
33269;DHT22;19640;50.944;5.260;2023-09-18T07:01:41;19.80;99.90
33269;DHT22;19640;50.944;5.260;2023-09-18T07:04:08;19.60;99.90
33269;DHT22;19640;50.944;5.260;2023-09-18T07:06:34;19.60;99.90
33269;DHT22;19640;50.944;5.260;2023-09-18T07:08:59;19.60;99.90
33269;DHT22;19640;50.944;5.260;2023-09-18T07:11:25;19.70;99.90
33269;DHT22;19640;50.944;5.260;2023-09-18T07:13:51;19.70;99.90
33269;DHT22;19640;50.944;5.260;2023-09-18T07:16:17;19.60;99.90
33269;DHT22;19640;50.944;5.260;2023-09-18T07:18:43;19.70;99.90
33269;DHT22;19640;50.944;5.260;2023-09-18T07:21:08;19.90;99.90
33269;DHT22;19640;50.944;5.260;2023-09-18T07:23:34;19.80;99.90
33269;DHT22;19640;50.944;5.260;2023-09-18T07:26:03;19.80;99.90
33269;DHT22;19640;50.944;5.260;2023-09-18T07:28:29;19.90;99.90
33269;DHT22;19640;50.944;5.260;2023-09-18T07:30:55;19.90;99.90
33269;DHT22;19640;50.944;5.260;2023-09-18T07:33:20;19.90;99.90
33269;DHT22;19640;50.944;5.260;2023-09-18T07:35:47;19.90;99.90
33269;DHT22;19640;50.944;5.260;2023-09-18T07:38:13;19.90;99.90
33269;DHT22;19640;50.944;5.260;2023-09-18T07:40:39;20.00;99.90
33269;DHT22;19640;50.944;5.260;2023-09-18T07:43:05;20.00;99.90
33269;DHT22;19640;50.944;5.260;2023-09-18T07:45:31;20.00;99.90
33269;DHT22;19640;50.944;5.260;2023-09-18T07:47:56;19.90;99.90
33269;DHT22;19640;50.944;5.260;2023-09-18T07:50:22;19.90;99.90
33269;DHT22;19640;50.944;5.260;2023-09-18T07:52:48;20.00;99.90
33269;DHT22;19640;50.944;5.260;2023-09-18T07:55:13;19.90;99.90
33269;DHT22;19640;50.944;5.260;2023-09-18T07:57:40;19.90;99.90
33269;DHT22;19640;50.944;5.260;2023-09-18T08:00:06;19.90;99.90
33269;DHT22;19640;50.944;5.260;2023-09-18T08:02:38;20.10;99.90
33269;DHT22;19640;50.944;5.260;2023-09-18T08:05:04;20.30;99.90
33269;DHT22;19640;50.944;5.260;2023-09-18T08:07:30;20.30;99.90
33269;DHT22;19640;50.944;5.260;2023-09-18T08:09:56;20.50;99.90
33269;DHT22;19640;50.944;5.260;2023-09-18T08:12:23;20.80;99.90
33269;DHT22;19640;50.944;5.260;2023-09-18T08:14:49;21.00;99.90
33269;DHT22;19640;50.944;5.260;2023-09-18T08:17:16;21.00;99.90
33269;DHT22;19640;50.944;5.260;2023-09-18T08:19:41;21.00;99.90
33269;DHT22;19640;50.944;5.260;2023-09-18T08:22:08;20.70;99.90
33269;DHT22;19640;50.944;5.260;2023-09-18T08:24:33;20.70;99.90
33269;DHT22;19640;50.944;5.260;2023-09-18T08:26:59;20.70;99.90
33269;DHT22;19640;50.944;5.260;2023-09-18T08:29:25;20.80;99.90
33269;DHT22;19640;50.944;5.260;2023-09-18T08:31:50;20.90;99.90
33269;DHT22;19640;50.944;5.260;2023-09-18T08:34:16;20.90;99.90
33269;DHT22;19640;50.944;5.260;2023-09-18T08:36:42;21.00;99.90
33269;DHT22;19640;50.944;5.260;2023-09-18T08:39:08;21.10;99.90
33269;DHT22;19640;50.944;5.260;2023-09-18T08:41:38;21.40;99.90
33269;DHT22;19640;50.944;5.260;2023-09-18T08:44:08;21.30;99.90
33269;DHT22;19640;50.944;5.260;2023-09-18T08:46:36;21.30;99.90
33269;DHT22;19640;50.944;5.260;2023-09-18T08:49:02;21.40;99.90
33269;DHT22;19640;50.944;5.260;2023-09-18T08:51:29;21.40;99.90
33269;DHT22;19640;50.944;5.260;2023-09-18T08:53:56;21.50;99.90
33269;DHT22;19640;50.944;5.260;2023-09-18T08:56:22;21.50;99.90
33269;DHT22;19640;50.944;5.260;2023-09-18T08:58:49;21.40;99.90
33269;DHT22;19640;50.944;5.260;2023-09-18T09:01:15;21.70;99.90
33269;DHT22;19640;50.944;5.260;2023-09-18T09:03:42;21.80;99.90
33269;DHT22;19640;50.944;5.260;2023-09-18T09:06:09;22.00;99.90
33269;DHT22;19640;50.944;5.260;2023-09-18T09:08:36;22.10;99.90
33269;DHT22;19640;50.944;5.260;2023-09-18T09:11:03;22.20;99.90
33269;DHT22;19640;50.944;5.260;2023-09-18T09:13:29;21.90;99.90
33269;DHT22;19640;50.944;5.260;2023-09-18T09:15:56;21.90;99.90
33269;DHT22;19640;50.944;5.260;2023-09-18T09:18:23;22.00;99.90
33269;DHT22;19640;50.944;5.260;2023-09-18T09:20:58;22.00;99.90
33269;DHT22;19640;50.944;5.260;2023-09-18T09:23:26;22.00;99.90
33269;DHT22;19640;50.944;5.260;2023-09-18T09:25:53;22.10;99.90
33269;DHT22;19640;50.944;5.260;2023-09-18T09:28:31;22.30;99.90
33269;DHT22;19640;50.944;5.260;2023-09-18T09:31:01;22.30;99.90
33269;DHT22;19640;50.944;5.260;2023-09-18T09:33:31;22.20;99.90
33269;DHT22;19640;50.944;5.260;2023-09-18T09:35:57;22.10;99.90
33269;DHT22;19640;50.944;5.260;2023-09-18T09:38:31;22.20;99.90
33269;DHT22;19640;50.944;5.260;2023-09-18T09:41:03;22.40;99.90
33269;DHT22;19640;50.944;5.260;2023-09-18T09:43:32;22.40;99.90
33269;DHT22;19640;50.944;5.260;2023-09-18T09:46:02;22.30;99.90
33269;DHT22;19640;50.944;5.260;2023-09-18T09:48:29;22.30;99.90
33269;DHT22;19640;50.944;5.260;2023-09-18T09:51:00;22.20;99.90
33269;DHT22;19640;50.944;5.260;2023-09-18T09:53:45;22.10;99.90
33269;DHT22;19640;50.944;5.260;2023-09-18T09:56:12;21.90;99.90
33269;DHT22;19640;50.944;5.260;2023-09-18T09:58:38;22.00;99.90
33269;DHT22;19640;50.944;5.260;2023-09-18T10:01:11;22.10;99.90
33269;DHT22;19640;50.944;5.260;2023-09-18T10:03:44;22.20;99.90
33269;DHT22;19640;50.944;5.260;2023-09-18T10:06:11;22.20;99.90
33269;DHT22;19640;50.944;5.260;2023-09-18T10:08:40;22.30;99.90
33269;DHT22;19640;50.944;5.260;2023-09-18T10:11:07;22.20;99.90
33269;DHT22;19640;50.944;5.260;2023-09-18T10:14:00;22.10;99.90
33269;DHT22;19640;50.944;5.260;2023-09-18T10:16:30;22.10;99.90
33269;DHT22;19640;50.944;5.260;2023-09-18T10:19:09;22.10;99.90
33269;DHT22;19640;50.944;5.260;2023-09-18T10:24:55;22.30;99.90
33269;DHT22;19640;50.944;5.260;2023-09-18T10:27:23;22.40;99.90
33269;DHT22;19640;50.944;5.260;2023-09-18T10:29:52;22.40;99.90
33269;DHT22;19640;50.944;5.260;2023-09-18T10:32:20;22.70;99.90
33269;DHT22;19640;50.944;5.260;2023-09-18T10:34:47;22.70;99.90
33269;DHT22;19640;50.944;5.260;2023-09-18T10:37:14;22.70;99.90
33269;DHT22;19640;50.944;5.260;2023-09-18T10:39:41;22.80;99.90
33269;DHT22;19640;50.944;5.260;2023-09-18T10:42:09;22.90;99.90
33269;DHT22;19640;50.944;5.260;2023-09-18T10:44:37;22.90;99.90
33269;DHT22;19640;50.944;5.260;2023-09-18T10:47:06;22.90;99.90
33269;DHT22;19640;50.944;5.260;2023-09-18T10:49:34;23.20;99.90
33269;DHT22;19640;50.944;5.260;2023-09-18T10:52:01;23.20;99.90
33269;DHT22;19640;50.944;5.260;2023-09-18T10:54:28;22.80;99.90
33269;DHT22;19640;50.944;5.260;2023-09-18T10:56:56;22.70;99.90
33269;DHT22;19640;50.944;5.260;2023-09-18T10:59:23;22.50;99.90
33269;DHT22;19640;50.944;5.260;2023-09-18T11:01:49;22.30;99.90
33269;DHT22;19640;50.944;5.260;2023-09-18T11:04:18;22.20;99.90
33269;DHT22;19640;50.944;5.260;2023-09-18T11:07:05;22.20;99.90
33269;DHT22;19640;50.944;5.260;2023-09-18T11:09:40;22.20;99.90
33269;DHT22;19640;50.944;5.260;2023-09-18T11:12:06;22.60;99.90
33269;DHT22;19640;50.944;5.260;2023-09-18T11:14:49;22.90;99.90
33269;DHT22;19640;50.944;5.260;2023-09-18T11:20:15;22.50;99.90
33269;DHT22;19640;50.944;5.260;2023-09-18T11:25:41;22.80;99.90
33269;DHT22;19640;50.944;5.260;2023-09-18T11:28:12;22.90;99.90
33269;DHT22;19640;50.944;5.260;2023-09-18T11:30:38;22.90;99.90
33269;DHT22;19640;50.944;5.260;2023-09-18T11:33:13;22.90;99.90
33269;DHT22;19640;50.944;5.260;2023-09-18T11:35:51;22.90;99.90
33269;DHT22;19640;50.944;5.260;2023-09-18T11:38:18;22.90;99.90
33269;DHT22;19640;50.944;5.260;2023-09-18T11:40:43;23.10;99.90
33269;DHT22;19640;50.944;5.260;2023-09-18T11:43:29;23.00;99.90
33269;DHT22;19640;50.944;5.260;2023-09-18T11:46:01;23.10;99.90
33269;DHT22;19640;50.944;5.260;2023-09-18T11:48:30;23.00;99.90
33269;DHT22;19640;50.944;5.260;2023-09-18T11:51:00;22.70;99.90
33269;DHT22;19640;50.944;5.260;2023-09-18T11:53:28;22.70;99.90
33269;DHT22;19640;50.944;5.260;2023-09-18T11:55:54;22.70;99.90
33269;DHT22;19640;50.944;5.260;2023-09-18T11:58:21;22.70;99.90
33269;DHT22;19640;50.944;5.260;2023-09-18T12:00:49;22.90;99.90
33269;DHT22;19640;50.944;5.260;2023-09-18T12:03:23;23.00;99.90
33269;DHT22;19640;50.944;5.260;2023-09-18T12:05:58;23.10;99.90
33269;DHT22;19640;50.944;5.260;2023-09-18T12:08:25;23.30;99.90
33269;DHT22;19640;50.944;5.260;2023-09-18T12:10:53;23.40;99.90
33269;DHT22;19640;50.944;5.260;2023-09-18T12:13:20;23.60;99.90
33269;DHT22;19640;50.944;5.260;2023-09-18T12:15:47;23.50;99.90
33269;DHT22;19640;50.944;5.260;2023-09-18T12:18:15;23.50;99.90
33269;DHT22;19640;50.944;5.260;2023-09-18T12:20:50;23.60;99.90
33269;DHT22;19640;50.944;5.260;2023-09-18T12:23:17;23.50;99.90
33269;DHT22;19640;50.944;5.260;2023-09-18T12:25:48;23.40;99.90
33269;DHT22;19640;50.944;5.260;2023-09-18T12:28:15;23.60;99.90
33269;DHT22;19640;50.944;5.260;2023-09-18T12:30:42;23.60;99.90
33269;DHT22;19640;50.944;5.260;2023-09-18T12:33:08;23.70;99.90
33269;DHT22;19640;50.944;5.260;2023-09-18T12:35:34;23.60;99.90
33269;DHT22;19640;50.944;5.260;2023-09-18T12:38:00;23.70;99.90
33269;DHT22;19640;50.944;5.260;2023-09-18T12:40:30;23.70;99.90
33269;DHT22;19640;50.944;5.260;2023-09-18T12:42:59;23.80;99.90
33269;DHT22;19640;50.944;5.260;2023-09-18T12:45:25;23.90;99.90
33269;DHT22;19640;50.944;5.260;2023-09-18T12:47:53;23.90;99.90
33269;DHT22;19640;50.944;5.260;2023-09-18T12:50:19;23.80;99.90
33269;DHT22;19640;50.944;5.260;2023-09-18T12:52:45;23.90;99.90
33269;DHT22;19640;50.944;5.260;2023-09-18T12:55:27;23.90;99.90
33269;DHT22;19640;50.944;5.260;2023-09-18T12:57:52;24.00;99.90
33269;DHT22;19640;50.944;5.260;2023-09-18T13:00:19;23.80;99.90
33269;DHT22;19640;50.944;5.260;2023-09-18T13:02:51;23.70;99.90
33269;DHT22;19640;50.944;5.260;2023-09-18T13:05:23;23.70;99.90
33269;DHT22;19640;50.944;5.260;2023-09-18T13:07:55;23.70;99.90
33269;DHT22;19640;50.944;5.260;2023-09-18T13:10:22;23.90;99.90
33269;DHT22;19640;50.944;5.260;2023-09-18T13:12:49;23.80;99.90
33269;DHT22;19640;50.944;5.260;2023-09-18T13:17:53;23.90;99.90
33269;DHT22;19640;50.944;5.260;2023-09-18T13:20:30;23.80;99.90
33269;DHT22;19640;50.944;5.260;2023-09-18T13:22:58;23.80;99.90
33269;DHT22;19640;50.944;5.260;2023-09-18T13:25:29;23.70;99.90
33269;DHT22;19640;50.944;5.260;2023-09-18T13:27:55;23.70;99.90
33269;DHT22;19640;50.944;5.260;2023-09-18T13:30:21;23.70;99.90
33269;DHT22;19640;50.944;5.260;2023-09-18T13:32:49;23.70;99.90
33269;DHT22;19640;50.944;5.260;2023-09-18T13:35:18;23.80;99.90
33269;DHT22;19640;50.944;5.260;2023-09-18T13:37:45;23.90;99.90
33269;DHT22;19640;50.944;5.260;2023-09-18T13:40:12;23.80;99.90
33269;DHT22;19640;50.944;5.260;2023-09-18T13:42:39;23.60;99.90
33269;DHT22;19640;50.944;5.260;2023-09-18T13:45:06;23.70;99.90
33269;DHT22;19640;50.944;5.260;2023-09-18T13:47:33;23.90;99.90
33269;DHT22;19640;50.944;5.260;2023-09-18T13:50:00;23.90;99.90
33269;DHT22;19640;50.944;5.260;2023-09-18T13:52:27;23.90;99.90
33269;DHT22;19640;50.944;5.260;2023-09-18T13:54:53;23.90;99.90
33269;DHT22;19640;50.944;5.260;2023-09-18T13:57:19;23.90;99.90
33269;DHT22;19640;50.944;5.260;2023-09-18T13:59:46;23.90;99.90
33269;DHT22;19640;50.944;5.260;2023-09-18T14:02:12;24.00;99.90
33269;DHT22;19640;50.944;5.260;2023-09-18T14:04:38;24.00;99.90
33269;DHT22;19640;50.944;5.260;2023-09-18T14:07:05;24.20;99.90
33269;DHT22;19640;50.944;5.260;2023-09-18T14:09:31;24.10;99.90
33269;DHT22;19640;50.944;5.260;2023-09-18T14:11:57;24.10;99.90
33269;DHT22;19640;50.944;5.260;2023-09-18T14:14:23;24.00;99.90
33269;DHT22;19640;50.944;5.260;2023-09-18T14:16:49;24.00;99.90
33269;DHT22;19640;50.944;5.260;2023-09-18T14:19:19;24.10;99.90
33269;DHT22;19640;50.944;5.260;2023-09-18T14:21:45;24.10;99.90
33269;DHT22;19640;50.944;5.260;2023-09-18T14:24:11;24.00;99.90
33269;DHT22;19640;50.944;5.260;2023-09-18T14:26:37;24.00;99.90
33269;DHT22;19640;50.944;5.260;2023-09-18T14:29:08;24.00;99.90
33269;DHT22;19640;50.944;5.260;2023-09-18T14:31:34;24.10;99.90
33269;DHT22;19640;50.944;5.260;2023-09-18T14:34:00;24.10;99.90
33269;DHT22;19640;50.944;5.260;2023-09-18T14:36:28;24.30;99.90
33269;DHT22;19640;50.944;5.260;2023-09-18T14:38:54;24.40;99.90
33269;DHT22;19640;50.944;5.260;2023-09-18T14:41:21;24.30;99.90
33269;DHT22;19640;50.944;5.260;2023-09-18T14:43:46;24.20;99.90
33269;DHT22;19640;50.944;5.260;2023-09-18T14:46:13;24.20;99.90
33269;DHT22;19640;50.944;5.260;2023-09-18T14:48:38;24.20;99.90
33269;DHT22;19640;50.944;5.260;2023-09-18T14:51:04;24.10;99.90
33269;DHT22;19640;50.944;5.260;2023-09-18T14:53:32;24.10;99.90
33269;DHT22;19640;50.944;5.260;2023-09-18T14:55:59;24.00;99.90
33269;DHT22;19640;50.944;5.260;2023-09-18T14:58:24;23.70;99.90
33269;DHT22;19640;50.944;5.260;2023-09-18T15:00:50;23.70;99.90
33269;DHT22;19640;50.944;5.260;2023-09-18T15:03:16;23.80;99.90
33269;DHT22;19640;50.944;5.260;2023-09-18T15:05:42;24.00;99.90
33269;DHT22;19640;50.944;5.260;2023-09-18T15:08:08;23.90;99.90
33269;DHT22;19640;50.944;5.260;2023-09-18T15:10:34;23.80;99.90
33269;DHT22;19640;50.944;5.260;2023-09-18T15:12:59;23.60;99.90
33269;DHT22;19640;50.944;5.260;2023-09-18T15:15:25;23.60;99.90
33269;DHT22;19640;50.944;5.260;2023-09-18T15:17:51;23.60;99.90
33269;DHT22;19640;50.944;5.260;2023-09-18T15:20:18;23.60;99.90
33269;DHT22;19640;50.944;5.260;2023-09-18T15:22:44;23.60;99.90
33269;DHT22;19640;50.944;5.260;2023-09-18T15:25:10;23.50;99.90
33269;DHT22;19640;50.944;5.260;2023-09-18T15:27:37;23.50;99.90
33269;DHT22;19640;50.944;5.260;2023-09-18T15:30:04;23.30;99.90
33269;DHT22;19640;50.944;5.260;2023-09-18T15:32:49;23.30;99.90
33269;DHT22;19640;50.944;5.260;2023-09-18T15:35:16;23.40;99.90
33269;DHT22;19640;50.944;5.260;2023-09-18T15:37:43;23.40;99.90
33269;DHT22;19640;50.944;5.260;2023-09-18T15:40:10;23.40;99.90
33269;DHT22;19640;50.944;5.260;2023-09-18T15:42:37;23.30;99.90
33269;DHT22;19640;50.944;5.260;2023-09-18T15:45:07;23.30;99.90